Time;durP1;ratioP1;P1;durP2;ratioP2;P2;SDS_P1;SDS_P2;PMS_P1;PMS_P2;Temp;Humidity;BMP_temperature;BMP_pressure;BME280_temperature;BME280_humidity;BME280_pressure;Samples;Min_cycle;Max_cycle;Signal;HPM_P1;HPM_P2
2023/10/02 00:05:07;;;;;;;13.60;7.53;;;12.70;99.90;;;;;;5089590;28;20241;-30
2023/10/02 00:07:33;;;;;;;16.53;7.67;;;12.70;99.90;;;;;;5068270;28;20220;-30
2023/10/02 00:10:01;;;;;;;15.93;7.53;;;12.70;99.90;;;;;;5052604;28;20185;-30
2023/10/02 00:12:28;;;;;;;13.70;8.03;;;12.60;99.90;;;;;;5054494;28;20177;-30
2023/10/02 00:14:55;;;;;;;12.97;7.43;;;12.60;99.90;;;;;;5065598;28;20200;-30
2023/10/02 00:17:24;;;;;;;13.83;7.50;;;12.70;99.90;;;;;;5087409;28;20191;-30
2023/10/02 00:19:57;;;;;;;12.97;8.07;;;12.70;99.90;;;;;;5074327;28;20180;-30
2023/10/02 00:22:43;;;;;;;13.80;8.30;;;12.70;99.90;;;;;;5087834;28;20186;-30
2023/10/02 00:25:09;;;;;;;12.50;7.87;;;12.70;99.90;;;;;;5052928;28;20204;-30
2023/10/02 00:27:36;;;;;;;13.13;7.00;;;12.70;99.90;;;;;;5085331;28;20266;-30
2023/10/02 00:30:07;;;;;;;13.23;7.10;;;12.70;99.90;;;;;;5066150;28;20177;-30
2023/10/02 00:32:34;;;;;;;12.37;6.90;;;12.70;99.90;;;;;;5087368;28;20180;-30
2023/10/02 00:35:04;;;;;;;16.17;7.83;;;12.70;99.90;;;;;;5090821;28;20193;-29
2023/10/02 00:40:22;;;;;;;13.00;7.03;;;12.60;99.90;;;;;;5074507;28;20186;-30
2023/10/02 00:42:58;;;;;;;14.20;7.30;;;12.60;99.90;;;;;;5059739;28;20189;-30
2023/10/02 00:45:30;;;;;;;15.10;7.77;;;12.60;99.90;;;;;;5057848;28;20195;-30
2023/10/02 00:50:49;;;;;;;11.73;7.20;;;12.60;99.90;;;;;;5090411;28;20244;-30
2023/10/02 00:53:24;;;;;;;12.60;7.10;;;12.60;99.90;;;;;;5068836;28;20181;-31
2023/10/02 00:55:51;;;;;;;14.23;7.70;;;12.60;99.90;;;;;;5071581;28;20189;-30
2023/10/02 00:58:19;;;;;;;13.73;7.33;;;12.60;99.90;;;;;;5069259;28;20184;-30
2023/10/02 01:00:50;;;;;;;13.23;7.33;;;12.60;99.90;;;;;;5060463;28;20261;-30
2023/10/02 01:03:16;;;;;;;15.47;7.80;;;12.60;99.90;;;;;;5072911;28;20216;-30
2023/10/02 01:05:50;;;;;;;12.60;8.03;;;12.60;99.90;;;;;;5066166;28;20227;-30
2023/10/02 01:08:25;;;;;;;14.20;7.23;;;12.50;99.90;;;;;;5064351;28;20202;-30
2023/10/02 01:10:59;;;;;;;14.23;7.50;;;12.50;99.90;;;;;;5073609;28;20187;-30
2023/10/02 01:13:34;;;;;;;13.30;7.70;;;12.50;99.90;;;;;;5055880;28;20184;-30
2023/10/02 01:16:04;;;;;;;14.70;7.33;;;12.40;99.90;;;;;;5058898;28;20172;-30
2023/10/02 01:18:31;;;;;;;12.47;6.90;;;12.30;99.90;;;;;;5050247;28;20181;-30
2023/10/02 01:21:01;;;;;;;11.90;6.90;;;12.30;99.90;;;;;;5072383;28;20714;-29
2023/10/02 01:23:30;;;;;;;12.67;7.20;;;12.20;99.90;;;;;;5073032;28;20256;-30
2023/10/02 01:26:00;;;;;;;11.73;6.83;;;12.20;99.90;;;;;;5065284;28;20216;-30
2023/10/02 01:28:58;;;;;;;13.50;7.23;;;12.10;99.90;;;;;;5068594;28;20297;-30
2023/10/02 01:31:32;;;;;;;14.23;6.50;;;12.10;99.90;;;;;;5071631;28;20183;-30
2023/10/02 01:34:02;;;;;;;12.60;6.70;;;12.10;99.90;;;;;;5059348;28;20234;-30
2023/10/02 01:36:35;;;;;;;13.60;7.43;;;12.00;99.90;;;;;;5076397;28;20183;-30
2023/10/02 01:39:13;;;;;;;14.20;7.73;;;12.00;99.90;;;;;;5089533;28;20270;-30
2023/10/02 01:41:48;;;;;;;10.80;6.57;;;12.00;99.90;;;;;;5067764;28;20185;-30
2023/10/02 01:44:20;;;;;;;11.63;6.90;;;11.90;99.90;;;;;;5052201;28;20195;-31
2023/10/02 01:46:49;;;;;;;11.37;6.80;;;12.00;99.90;;;;;;5068433;28;20180;-30
2023/10/02 01:49:26;;;;;;;13.07;6.93;;;12.00;99.90;;;;;;5055209;28;20216;-30
2023/10/02 01:51:55;;;;;;;12.53;7.17;;;12.00;99.90;;;;;;5036077;28;20275;-30
2023/10/02 01:54:25;;;;;;;12.23;6.87;;;12.00;99.90;;;;;;5047211;28;20666;-30
2023/10/02 01:56:52;;;;;;;13.77;7.40;;;11.90;99.90;;;;;;5050677;28;20272;-29
2023/10/02 01:59:21;;;;;;;12.60;7.37;;;11.80;99.90;;;;;;5046010;28;20206;-30
2023/10/02 02:01:52;;;;;;;11.80;6.53;;;11.80;99.90;;;;;;5052689;28;20207;-30
2023/10/02 02:04:19;;;;;;;12.80;7.57;;;11.80;99.90;;;;;;5052763;28;20216;-31
2023/10/02 02:06:52;;;;;;;14.33;7.33;;;11.80;99.90;;;;;;5072667;28;20179;-31
2023/10/02 02:09:30;;;;;;;12.27;6.87;;;11.80;99.90;;;;;;5046847;28;20182;-30
2023/10/02 02:12:14;;;;;;;12.10;7.40;;;11.80;99.90;;;;;;5053594;28;20269;-31
2023/10/02 02:14:51;;;;;;;13.07;7.53;;;11.70;99.90;;;;;;5059555;28;20199;-31
2023/10/02 02:17:22;;;;;;;12.87;7.03;;;11.80;99.90;;;;;;5063395;28;20203;-31
2023/10/02 02:19:48;;;;;;;11.27;7.00;;;11.80;99.90;;;;;;5064555;28;20184;-30
2023/10/02 02:22:25;;;;;;;12.97;6.67;;;11.80;99.90;;;;;;5055905;28;20185;-30
2023/10/02 02:24:59;;;;;;;14.63;7.03;;;11.70;99.90;;;;;;5055473;28;20206;-31
2023/10/02 02:27:25;;;;;;;11.60;6.83;;;11.70;99.90;;;;;;5056294;28;20217;-30
2023/10/02 02:29:56;;;;;;;12.00;6.60;;;11.60;99.90;;;;;;5052961;28;20190;-30
2023/10/02 02:35:11;;;;;;;14.23;7.33;;;11.40;99.90;;;;;;5064756;28;20194;-30
2023/10/02 02:37:37;;;;;;;14.13;7.77;;;11.30;99.90;;;;;;5055814;28;20182;-30
2023/10/02 02:42:50;;;;;;;17.03;8.60;;;11.30;99.90;;;;;;5070720;28;20211;-30
2023/10/02 02:45:28;;;;;;;14.00;8.10;;;11.50;99.90;;;;;;5051085;28;20203;-30
2023/10/02 02:48:07;;;;;;;13.70;7.57;;;11.50;99.90;;;;;;5055122;28;20213;-31
2023/10/02 02:50:41;;;;;;;16.50;7.77;;;11.50;99.90;;;;;;5055921;28;20186;-31
2023/10/02 02:56:23;;;;;;;14.60;8.00;;;11.50;99.90;;;;;;5078988;28;20193;-30
2023/10/02 02:58:56;;;;;;;15.00;7.87;;;11.50;99.90;;;;;;5084536;28;20196;-31
2023/10/02 03:01:22;;;;;;;15.23;8.37;;;11.50;99.90;;;;;;5059043;28;20270;-30
2023/10/02 03:03:55;;;;;;;14.53;8.07;;;11.40;99.90;;;;;;5054550;28;20217;-30
2023/10/02 03:06:24;;;;;;;17.20;7.63;;;11.30;99.90;;;;;;5059442;28;20246;-31
2023/10/02 03:08:54;;;;;;;14.83;7.90;;;11.30;99.90;;;;;;5079370;28;20234;-31
2023/10/02 03:11:28;;;;;;;14.40;7.83;;;11.30;99.90;;;;;;5053430;28;20224;-30
2023/10/02 03:14:11;;;;;;;13.73;7.97;;;11.30;99.90;;;;;;5057006;28;20204;-31
2023/10/02 03:16:38;;;;;;;14.03;7.33;;;11.30;99.90;;;;;;5049655;28;20217;-30
2023/10/02 03:19:07;;;;;;;12.47;7.57;;;11.30;99.90;;;;;;5055186;28;20186;-31
2023/10/02 03:21:38;;;;;;;13.60;7.70;;;11.30;99.90;;;;;;5054987;28;20177;-30
2023/10/02 03:24:04;;;;;;;12.10;6.93;;;11.40;99.90;;;;;;5058550;28;20228;-30
2023/10/02 03:29:02;;;;;;;13.30;8.00;;;11.30;99.90;;;;;;5068571;28;20300;-31
2023/10/02 03:32:12;;;;;;;13.47;8.00;;;11.40;99.90;;;;;;5050951;28;20177;-31
2023/10/02 03:34:33;;;;;;;13.63;7.17;;;11.40;99.90;;;;;;5072666;28;20198;-31
2023/10/02 03:42:25;;;;;;;13.37;7.13;;;11.40;99.90;;;;;;5091806;28;20181;-30
2023/10/02 03:44:56;;;;;;;13.27;7.00;;;11.40;99.90;;;;;;5054971;28;20207;-30
2023/10/02 03:47:27;;;;;;;13.57;6.87;;;11.40;99.90;;;;;;5049183;28;20689;-30
2023/10/02 03:50:00;;;;;;;15.67;7.60;;;11.30;99.90;;;;;;5069144;28;20182;-30
2023/10/02 03:52:28;;;;;;;12.47;7.40;;;11.30;99.90;;;;;;5060734;28;20178;-31
2023/10/02 03:54:55;;;;;;;13.40;7.40;;;11.30;99.90;;;;;;5074776;28;20194;-30
2023/10/02 03:57:47;;;;;;;12.47;7.63;;;11.30;99.90;;;;;;5067836;28;20179;-31
2023/10/02 04:00:22;;;;;;;12.67;8.37;;;11.30;99.90;;;;;;5080346;28;20190;-31
2023/10/02 04:02:51;;;;;;;14.93;8.67;;;11.20;99.90;;;;;;5054146;28;20274;-31
2023/10/02 04:05:42;;;;;;;13.83;8.10;;;11.20;99.90;;;;;;5064192;28;20221;-30
2023/10/02 04:08:12;;;;;;;14.63;8.37;;;11.10;99.90;;;;;;5074463;28;20210;-30
2023/10/02 04:10:51;;;;;;;16.43;8.57;;;11.10;99.90;;;;;;5053986;28;20261;-31
2023/10/02 04:13:25;;;;;;;15.27;8.63;;;11.00;99.90;;;;;;5058742;28;20169;-31
2023/10/02 04:16:28;;;;;;;14.37;8.37;;;11.00;99.90;;;;;;5067929;28;20188;-30
2023/10/02 04:18:49;;;;;;;14.47;8.13;;;11.00;99.90;;;;;;5069877;28;20189;-31
2023/10/02 04:21:22;;;;;;;14.33;8.20;;;11.00;99.90;;;;;;5068420;28;20195;-30
2023/10/02 04:23:52;;;;;;;13.87;8.50;;;11.00;99.90;;;;;;5053747;28;20208;-31
2023/10/02 04:26:23;;;;;;;14.40;7.87;;;11.00;99.90;;;;;;5052441;28;20185;-31
2023/10/02 04:28:58;;;;;;;12.60;7.97;;;10.90;99.90;;;;;;5054587;28;20213;-31
2023/10/02 04:31:29;;;;;;;13.67;7.67;;;10.90;99.90;;;;;;5054568;28;20177;-30
2023/10/02 04:34:24;;;;;;;16.23;7.90;;;10.90;99.90;;;;;;5055140;28;20193;-30
2023/10/02 04:36:51;;;;;;;12.27;7.57;;;10.90;99.90;;;;;;5077694;28;20266;-31
2023/10/02 04:42:19;;;;;;;12.20;7.73;;;10.80;99.90;;;;;;5079904;28;20181;-31
2023/10/02 04:44:47;;;;;;;11.57;7.00;;;10.80;99.90;;;;;;5067943;28;20462;-30
2023/10/02 04:47:20;;;;;;;14.63;7.90;;;10.80;99.90;;;;;;5053371;28;20217;-31
2023/10/02 04:55:41;;;;;;;13.70;7.60;;;10.70;99.90;;;;;;5065581;28;20207;-30
2023/10/02 04:58:17;;;;;;;11.97;6.70;;;10.70;99.90;;;;;;5063260;28;20227;-30
2023/10/02 05:03:32;;;;;;;11.17;7.10;;;10.70;99.90;;;;;;5064065;28;20205;-31
2023/10/02 05:06:00;;;;;;;10.70;7.23;;;10.60;99.90;;;;;;5063724;28;20242;-30
2023/10/02 05:08:33;;;;;;;13.90;7.43;;;10.50;99.90;;;;;;5057854;28;20256;-30
2023/10/02 05:11:46;;;;;;;12.57;7.10;;;10.50;99.90;;;;;;5056777;28;20181;-30
2023/10/02 05:13:59;;;;;;;9.63;6.27;;;10.40;99.90;;;;;;5061061;28;20226;-31
2023/10/02 05:16:33;;;;;;;15.83;7.47;;;10.30;99.90;;;;;;5048099;28;20629;-30
2023/10/02 05:19:04;;;;;;;13.67;6.97;;;10.20;99.90;;;;;;5069499;28;20188;-31
2023/10/02 05:21:38;;;;;;;11.93;6.83;;;10.10;99.90;;;;;;5057463;28;20184;-30
2023/10/02 05:24:12;;;;;;;12.67;7.20;;;10.10;99.90;;;;;;5066693;28;20208;-30
2023/10/02 05:26:44;;;;;;;15.70;7.47;;;10.10;99.90;;;;;;5049738;28;20204;-30
2023/10/02 05:29:17;;;;;;;15.63;7.43;;;10.20;99.90;;;;;;5064092;28;20204;-30
2023/10/02 05:31:47;;;;;;;12.20;6.80;;;10.20;99.90;;;;;;5066288;28;20173;-31
2023/10/02 05:34:24;;;;;;;12.63;7.27;;;10.20;99.90;;;;;;5056748;28;20197;-30
2023/10/02 05:39:40;;;;;;;14.90;7.83;;;10.30;99.90;;;;;;5080326;28;20173;-31
2023/10/02 05:42:16;;;;;;;14.07;7.33;;;10.30;99.90;;;;;;5052757;28;20189;-30
2023/10/02 05:44:45;;;;;;;13.80;6.93;;;10.40;99.90;;;;;;5058608;28;20204;-30
2023/10/02 05:47:15;;;;;;;13.77;7.90;;;10.40;99.90;;;;;;5075716;28;20253;-30
2023/10/02 05:49:47;;;;;;;14.97;7.03;;;10.40;99.90;;;;;;5061337;28;20170;-31
2023/10/02 05:52:23;;;;;;;11.80;7.17;;;10.40;99.90;;;;;;5060145;28;20172;-31
2023/10/02 05:54:54;;;;;;;15.40;7.63;;;10.40;99.90;;;;;;5061809;28;20200;-31
2023/10/02 05:57:20;;;;;;;14.23;7.60;;;10.50;99.90;;;;;;5055601;28;20711;-31
2023/10/02 05:59:48;;;;;;;15.53;7.80;;;10.50;99.90;;;;;;5054636;28;20185;-32
2023/10/02 06:02:22;;;;;;;12.57;7.07;;;10.60;99.90;;;;;;5064426;28;20182;-31
2023/10/02 06:04:53;;;;;;;12.87;7.90;;;10.70;99.90;;;;;;5055230;28;20213;-30
2023/10/02 06:07:43;;;;;;;11.50;7.10;;;10.80;99.90;;;;;;5067869;28;20209;-31
2023/10/02 06:10:08;;;;;;;12.47;7.90;;;10.90;99.90;;;;;;5080873;28;20267;-30
2023/10/02 06:12:42;;;;;;;13.00;7.60;;;10.90;99.90;;;;;;5072947;28;20680;-30
2023/10/02 06:18:07;;;;;;;17.23;7.67;;;10.90;99.90;;;;;;5048299;28;20269;-30
2023/10/02 06:20:33;;;;;;;10.97;7.37;;;11.00;99.90;;;;;;5049499;28;20272;-31
2023/10/02 06:23:19;;;;;;;14.30;7.90;;;11.00;99.90;;;;;;5052463;28;20273;-31
2023/10/02 06:25:46;;;;;;;14.33;7.87;;;11.10;99.90;;;;;;5065249;28;20665;-30
2023/10/02 06:28:30;;;;;;;15.57;8.20;;;11.10;99.90;;;;;;5092089;28;20201;-31
2023/10/02 06:30:56;;;;;;;12.43;7.57;;;11.20;99.90;;;;;;5060309;28;20213;-31
2023/10/02 06:33:22;;;;;;;11.67;7.37;;;11.30;99.90;;;;;;5064979;28;20201;-31
2023/10/02 06:35:57;;;;;;;13.07;7.37;;;11.40;99.90;;;;;;5072125;28;20182;-31
2023/10/02 06:38:29;;;;;;;14.40;7.60;;;11.50;99.90;;;;;;5060697;28;20208;-31
2023/10/02 06:40:56;;;;;;;13.03;8.07;;;11.60;99.90;;;;;;5055721;28;20251;-31
2023/10/02 06:43:29;;;;;;;12.57;7.27;;;11.70;99.90;;;;;;5068348;28;20183;-30
2023/10/02 06:46:18;;;;;;;14.13;7.93;;;11.80;99.90;;;;;;5070027;28;20279;-31
2023/10/02 06:48:45;;;;;;;13.67;7.27;;;11.90;99.90;;;;;;5055400;28;20273;-31
2023/10/02 06:51:15;;;;;;;12.73;8.07;;;12.00;99.90;;;;;;5055501;28;20241;-31
2023/10/02 06:53:42;;;;;;;14.63;8.23;;;12.00;99.90;;;;;;5070683;28;20198;-31
2023/10/02 06:56:13;;;;;;;14.50;7.63;;;12.20;99.90;;;;;;5069011;28;20300;-31
2023/10/02 06:58:49;;;;;;;16.13;9.20;;;12.30;99.90;;;;;;5072279;28;20187;-31
2023/10/02 07:01:18;;;;;;;14.70;8.30;;;12.30;99.90;;;;;;5070823;28;20205;-30
2023/10/02 07:03:56;;;;;;;12.93;8.03;;;12.40;99.90;;;;;;5055311;28;20284;-31
2023/10/02 07:06:24;;;;;;;14.80;8.37;;;12.60;99.90;;;;;;5065621;28;20199;-31
2023/10/02 07:09:10;;;;;;;16.17;8.57;;;12.70;99.90;;;;;;5055401;28;20226;-31
2023/10/02 07:11:39;;;;;;;15.93;8.10;;;12.70;99.90;;;;;;5048103;28;20188;-31
2023/10/02 07:14:06;;;;;;;16.10;8.50;;;12.80;99.90;;;;;;5056178;28;20201;-31
2023/10/02 07:16:32;;;;;;;14.80;8.83;;;12.90;99.90;;;;;;5066728;28;20179;-31
2023/10/02 07:18:59;;;;;;;14.50;7.87;;;13.00;99.90;;;;;;5050368;28;20694;-31
2023/10/02 07:21:30;;;;;;;13.67;7.67;;;13.00;99.90;;;;;;5067648;28;20280;-31
2023/10/02 07:24:25;;;;;;;14.50;8.20;;;13.20;99.90;;;;;;5068486;28;20215;-32
2023/10/02 07:26:51;;;;;;;16.37;8.50;;;13.30;99.90;;;;;;5063522;28;20191;-32
2023/10/02 07:29:19;;;;;;;14.63;8.70;;;13.40;99.90;;;;;;5065029;28;20243;-32
2023/10/02 07:31:47;;;;;;;16.97;8.23;;;13.50;99.90;;;;;;5082665;28;20183;-31
2023/10/02 07:34:15;;;;;;;14.93;8.37;;;13.60;99.90;;;;;;5071017;28;20208;-31
2023/10/02 07:36:45;;;;;;;13.60;8.57;;;13.70;99.90;;;;;;5061795;28;20216;-31
2023/10/02 07:42:00;;;;;;;13.73;7.73;;;13.90;99.90;;;;;;5070798;28;20199;-31
2023/10/02 07:44:36;;;;;;;16.57;8.20;;;14.10;99.90;;;;;;5075378;28;20673;-32
2023/10/02 07:47:18;;;;;;;14.50;8.37;;;14.20;99.90;;;;;;5053334;28;20310;-31
2023/10/02 07:49:58;;;;;;;14.10;7.83;;;14.30;99.90;;;;;;5064055;28;20178;-31
2023/10/02 07:52:29;;;;;;;13.00;7.13;;;14.40;99.90;;;;;;5059205;28;20173;-31
2023/10/02 07:54:59;;;;;;;14.67;7.50;;;14.50;99.90;;;;;;5064892;28;20205;-31
2023/10/02 07:57:33;;;;;;;12.80;7.80;;;14.60;99.90;;;;;;5054745;28;20634;-32
2023/10/02 08:00:52;;;;;;;14.43;9.03;;;14.70;99.90;;;;;;5051293;28;20185;-31
2023/10/02 08:02:52;;;;;;;17.57;8.40;;;14.90;99.90;;;;;;5057410;28;20189;-31
2023/10/02 08:05:21;;;;;;;14.40;8.27;;;15.00;99.90;;;;;;5053250;28;20213;-31
2023/10/02 08:08:07;;;;;;;13.37;8.13;;;15.10;99.90;;;;;;5046813;28;20240;-32
2023/10/02 08:10:49;;;;;;;13.60;8.53;;;15.30;99.90;;;;;;5078694;28;20180;-32
2023/10/02 08:13:32;;;;;;;17.33;8.30;;;15.40;99.90;;;;;;5066985;28;20213;-32
2023/10/02 08:16:17;;;;;;;13.43;8.33;;;15.60;99.90;;;;;;5056211;28;20170;-32
2023/10/02 08:18:58;;;;;;;15.67;8.20;;;15.70;99.90;;;;;;5080981;28;20238;-32
2023/10/02 08:21:36;;;;;;;16.37;8.83;;;15.90;99.90;;;;;;5080605;28;20227;-31
2023/10/02 08:24:05;;;;;;;15.77;8.80;;;16.10;99.90;;;;;;5060465;28;20201;-31
2023/10/02 08:26:40;;;;;;;15.43;8.70;;;16.30;99.90;;;;;;5060834;28;20184;-31
2023/10/02 08:29:10;;;;;;;14.97;8.87;;;16.40;99.90;;;;;;5061842;28;20212;-31
2023/10/02 08:31:42;;;;;;;15.97;8.70;;;16.50;99.90;;;;;;5063121;28;20181;-31
2023/10/02 08:34:12;;;;;;;14.88;8.70;;;16.70;99.90;;;;;;5057715;28;20270;-31
2023/10/02 08:36:40;;;;;;;17.73;9.65;;;16.90;99.90;;;;;;5057719;28;20186;-31
2023/10/02 08:39:08;;;;;;;18.05;9.73;;;17.00;99.90;;;;;;5064649;28;20184;-30
2023/10/02 08:41:43;;;;;;;17.23;9.53;;;17.20;99.90;;;;;;5065927;28;20211;-31
2023/10/02 08:44:11;;;;;;;20.13;10.93;;;17.30;99.90;;;;;;5071331;28;20720;-30
2023/10/02 08:46:42;;;;;;;21.10;11.32;;;17.40;99.90;;;;;;5062308;28;20242;-32
2023/10/02 08:49:13;;;;;;;18.67;10.20;;;17.40;99.90;;;;;;5078463;28;20208;-31
2023/10/02 08:51:48;;;;;;;15.48;9.15;;;17.50;99.90;;;;;;5063796;28;20646;-31
2023/10/02 08:54:15;;;;;;;17.75;9.82;;;17.70;99.90;;;;;;5064036;28;20216;-31
2023/10/02 08:56:48;;;;;;;18.38;9.10;;;17.80;99.90;;;;;;5061201;28;20184;-32
2023/10/02 08:59:26;;;;;;;16.77;9.57;;;18.00;99.90;;;;;;5070717;28;20254;-31
2023/10/02 09:02:16;;;;;;;20.60;10.38;;;18.20;99.90;;;;;;5055256;28;20272;-31
2023/10/02 09:04:51;;;;;;;18.40;10.00;;;18.30;99.90;;;;;;5066408;28;20250;-31
2023/10/02 09:07:44;;;;;;;17.17;9.90;;;18.50;99.90;;;;;;5065577;28;20213;-31
2023/10/02 09:10:30;;;;;;;16.60;9.45;;;18.70;99.90;;;;;;5065000;28;20230;-31
2023/10/02 09:13:14;;;;;;;17.67;9.13;;;18.80;99.90;;;;;;5064221;28;20239;-32
2023/10/02 09:15:53;;;;;;;17.67;10.23;;;19.00;99.90;;;;;;5064918;28;20208;-32
2023/10/02 09:19:07;;;;;;;18.88;10.18;;;19.10;99.90;;;;;;5050550;28;20191;-31
2023/10/02 09:21:39;;;;;;;18.52;10.43;;;19.30;99.90;;;;;;5065238;28;20182;-31
2023/10/02 09:24:18;;;;;;;17.42;10.15;;;19.50;99.90;;;;;;5049776;28;20211;-31
2023/10/02 09:26:45;;;;;;;18.42;10.30;;;19.60;99.90;;;;;;5051680;28;20184;-31
2023/10/02 09:29:16;;;;;;;17.02;10.20;;;19.70;99.90;;;;;;5051382;28;20209;-32
2023/10/02 09:31:43;;;;;;;21.48;11.10;;;19.90;99.90;;;;;;5050263;28;20169;-32
2023/10/02 09:34:16;;;;;;;17.58;10.40;;;20.00;99.90;;;;;;5060088;28;20289;-32
2023/10/02 09:36:53;;;;;;;18.83;10.75;;;20.00;99.90;;;;;;5065780;28;20174;-31
2023/10/02 09:39:31;;;;;;;19.83;10.43;;;20.20;99.90;;;;;;5045720;28;20188;-31
2023/10/02 09:42:06;;;;;;;17.77;10.18;;;20.30;99.90;;;;;;5050508;28;20176;-32
2023/10/02 09:44:42;;;;;;;18.02;10.02;;;20.40;99.90;;;;;;5056246;28;20291;-31
2023/10/02 09:47:25;;;;;;;19.15;11.00;;;20.50;99.90;;;;;;5050873;28;20642;-32
2023/10/02 09:50:25;;;;;;;20.58;11.15;;;20.60;99.90;;;;;;5060679;28;20198;-32
2023/10/02 09:53:15;;;;;;;17.05;10.02;;;20.70;99.90;;;;;;5066711;28;20290;-31
2023/10/02 09:55:46;;;;;;;19.90;11.05;;;20.80;99.90;;;;;;5074064;28;20327;-31
2023/10/02 09:58:30;;;;;;;17.52;10.35;;;20.80;99.90;;;;;;5064212;28;20193;-33
2023/10/02 10:04:30;;;;;;;17.70;10.02;;;21.20;99.90;;;;;;5077018;28;20224;-31
2023/10/02 10:07:37;;;;;;;19.17;10.40;;;21.20;99.90;;;;;;5071239;28;20177;-32
2023/10/02 10:10:47;;;;;;;18.75;10.82;;;21.40;99.90;;;;;;5074581;28;20190;-31
2023/10/02 10:13:59;;;;;;;22.08;11.32;;;21.60;99.90;;;;;;5093565;28;20199;-32
2023/10/02 10:16:48;;;;;;;21.55;11.57;;;21.80;99.90;;;;;;5049010;28;20181;-31
2023/10/02 10:19:26;;;;;;;21.42;11.38;;;21.90;99.90;;;;;;5086814;28;20184;-31
2023/10/02 10:22:10;;;;;;;21.98;12.23;;;21.90;99.90;;;;;;5066949;28;20186;-31
2023/10/02 10:25:22;;;;;;;19.80;11.23;;;22.00;99.90;;;;;;5091621;28;20200;-30
2023/10/02 10:28:09;;;;;;;20.73;11.02;;;22.20;99.90;;;;;;5103288;28;20261;-33
2023/10/02 10:31:14;;;;;;;24.83;13.23;;;22.50;99.90;;;;;;5090075;28;20170;-32
2023/10/02 10:33:50;;;;;;;23.10;12.32;;;22.60;99.90;;;;;;5080450;28;20209;-31
2023/10/02 10:37:02;;;;;;;21.45;12.63;;;22.80;99.90;;;;;;5093340;28;20189;-32
2023/10/02 10:40:44;;;;;;;22.02;12.85;;;23.00;99.90;;;;;;5078800;28;20185;-32
2023/10/02 10:44:15;;;;;;;24.15;12.82;;;23.10;99.90;;;;;;5099845;28;20174;-32
2023/10/02 10:46:37;;;;;;;21.85;12.45;;;23.30;99.90;;;;;;5068931;28;20198;-32
2023/10/02 10:49:24;;;;;;;23.45;13.70;;;23.40;99.90;;;;;;5090116;28;20206;-32
2023/10/02 10:52:24;;;;;;;24.95;13.07;;;23.60;99.90;;;;;;5102010;28;20168;-32
2023/10/02 10:55:09;;;;;;;25.10;14.13;;;23.70;99.90;;;;;;5101916;28;20236;-32
2023/10/02 10:57:53;;;;;;;26.17;14.23;;;23.90;99.90;;;;;;5089834;28;20162;-31
2023/10/02 11:00:35;;;;;;;26.25;14.15;;;24.10;99.90;;;;;;5076404;28;20194;-33
2023/10/02 11:03:19;;;;;;;25.70;14.40;;;24.20;99.90;;;;;;5097621;28;20173;-32
2023/10/02 11:06:10;;;;;;;25.38;14.73;;;24.30;99.90;;;;;;5093070;28;20199;-31
2023/10/02 11:08:44;;;;;;;23.55;13.70;;;24.40;99.90;;;;;;5047255;28;20209;-32
2023/10/02 11:11:19;;;;;;;23.63;13.73;;;24.50;99.90;;;;;;5063064;28;20182;-32
2023/10/02 11:13:54;;;;;;;23.75;13.55;;;24.60;99.90;;;;;;5064409;28;20204;-32
2023/10/02 11:16:38;;;;;;;25.33;14.05;;;24.70;99.90;;;;;;5051558;28;20180;-32
2023/10/02 11:20:08;;;;;;;26.05;14.30;;;24.80;99.90;;;;;;5073358;28;20188;-32
2023/10/02 11:22:24;;;;;;;24.80;14.25;;;24.90;99.90;;;;;;5060609;28;20188;-32
2023/10/02 11:25:00;;;;;;;24.13;14.63;;;25.10;99.90;;;;;;5051689;28;20371;-32
2023/10/02 11:27:30;;;;;;;24.00;13.68;;;25.10;99.90;;;;;;5065995;28;20208;-32
2023/10/02 11:30:07;;;;;;;23.90;13.93;;;25.20;99.90;;;;;;5068125;28;20224;-32
2023/10/02 11:32:58;;;;;;;29.92;14.68;;;25.30;99.90;;;;;;5050478;28;20173;-32
2023/10/02 11:35:37;;;;;;;23.45;14.07;;;25.50;99.90;;;;;;5070432;28;20277;-32
2023/10/02 11:38:07;;;;;;;22.60;13.65;;;25.60;99.90;;;;;;5054915;28;20283;-31
2023/10/02 11:40:35;;;;;;;22.20;13.45;;;25.80;99.90;;;;;;5059945;28;20186;-31
2023/10/02 11:43:01;;;;;;;23.05;13.90;;;26.00;99.90;;;;;;5060549;28;20232;-32
2023/10/02 11:45:29;;;;;;;23.02;14.32;;;26.10;99.90;;;;;;5052873;28;20189;-31
2023/10/02 11:47:56;;;;;;;25.05;13.88;;;26.20;99.90;;;;;;5071180;28;20209;-31
2023/10/02 11:50:23;;;;;;;24.13;13.90;;;26.30;99.90;;;;;;5062422;28;20178;-33
2023/10/02 11:52:49;;;;;;;24.08;14.02;;;26.40;99.90;;;;;;5071908;28;20301;-32
2023/10/02 11:55:18;;;;;;;21.25;13.38;;;26.50;99.90;;;;;;5085378;28;20234;-33
2023/10/02 11:57:53;;;;;;;24.58;14.45;;;26.60;99.90;;;;;;5070896;28;20176;-33
2023/10/02 12:00:22;;;;;;;22.85;14.45;;;26.80;99.90;;;;;;5042949;28;20189;-33
2023/10/02 12:02:49;;;;;;;21.80;13.40;;;26.80;99.90;;;;;;5068001;28;20181;-32
2023/10/02 12:05:16;;;;;;;22.90;13.57;;;27.00;99.90;;;;;;5057273;28;20213;-32
2023/10/02 12:07:44;;;;;;;26.05;14.55;;;27.00;99.90;;;;;;5073914;28;20204;-32
2023/10/02 12:10:15;;;;;;;22.63;13.80;;;27.20;99.90;;;;;;5058653;28;20180;-33
2023/10/02 12:12:45;;;;;;;24.77;14.10;;;27.10;99.90;;;;;;5064596;28;20187;-33
2023/10/02 12:15:15;;;;;;;22.98;14.25;;;27.20;99.90;;;;;;5070546;28;20204;-32
2023/10/02 12:17:40;;;;;;;24.00;14.20;;;27.20;99.90;;;;;;5072088;28;20189;-33
2023/10/02 12:20:10;;;;;;;24.42;14.55;;;27.40;99.90;;;;;;5070050;28;20181;-33
2023/10/02 12:22:37;;;;;;;20.45;13.52;;;27.50;99.90;;;;;;5062480;28;20185;-32
2023/10/02 12:25:09;;;;;;;22.65;13.10;;;27.70;99.90;;;;;;5052160;28;20267;-33
2023/10/02 12:27:38;;;;;;;22.92;13.63;;;27.80;99.90;;;;;;5054794;28;20250;-32
2023/10/02 12:30:06;;;;;;;22.92;14.02;;;27.80;99.90;;;;;;5072246;28;20185;-32
2023/10/02 12:32:33;;;;;;;25.55;14.75;;;27.80;99.90;;;;;;5070100;28;20184;-32
2023/10/02 12:34:59;;;;;;;22.35;13.43;;;28.00;99.90;;;;;;5060054;28;20769;-32
2023/10/02 12:37:24;;;;;;;23.73;14.02;;;28.10;99.90;;;;;;5087486;28;20296;-33
2023/10/02 12:39:55;;;;;;;22.90;13.75;;;28.20;99.90;;;;;;5066281;28;20273;-33
2023/10/02 12:42:21;;;;;;;23.55;14.18;;;28.30;99.90;;;;;;5053447;28;20173;-33
2023/10/02 12:44:48;;;;;;;24.90;13.23;;;28.40;99.90;;;;;;5070007;28;20267;-32
2023/10/02 12:47:15;;;;;;;24.75;13.75;;;28.60;99.90;;;;;;5066182;28;20284;-33
2023/10/02 12:49:42;;;;;;;23.42;13.18;;;28.80;99.90;;;;;;5069374;28;20177;-33
2023/10/02 12:52:09;;;;;;;22.73;14.57;;;28.70;99.90;;;;;;5070636;28;20180;-33
2023/10/02 12:54:35;;;;;;;25.70;14.60;;;28.80;99.90;;;;;;5064574;28;20196;-33
2023/10/02 12:57:01;;;;;;;22.42;14.02;;;28.90;99.90;;;;;;5045839;28;20250;-33
2023/10/02 12:59:28;;;;;;;23.73;14.77;;;28.80;99.90;;;;;;5066009;28;20169;-33
2023/10/02 13:01:53;;;;;;;21.85;14.25;;;28.90;99.90;;;;;;5068241;28;20181;-33
2023/10/02 13:04:19;;;;;;;23.73;14.15;;;28.90;99.90;;;;;;5053356;28;20205;-33
2023/10/02 13:06:46;;;;;;;23.52;14.15;;;29.00;99.90;;;;;;5054444;28;20169;-33
2023/10/02 13:09:15;;;;;;;23.77;14.13;;;29.10;99.90;;;;;;5069065;28;20205;-30
2023/10/02 13:11:44;;;;;;;23.27;13.88;;;29.30;99.90;;;;;;5065328;28;20288;-30
2023/10/02 13:14:16;;;;;;;23.88;14.88;;;29.20;99.90;;;;;;5065568;28;20204;-31
2023/10/02 13:16:43;;;;;;;21.95;13.48;;;29.40;99.90;;;;;;5051242;28;20178;-30
2023/10/02 13:19:11;;;;;;;23.00;14.18;;;29.50;99.90;;;;;;5054823;28;20188;-30
2023/10/02 13:21:38;;;;;;;22.75;13.73;;;29.50;99.90;;;;;;5062642;28;20184;-30
2023/10/02 13:24:06;;;;;;;23.23;14.48;;;29.50;99.90;;;;;;5072139;28;20203;-31
2023/10/02 13:26:36;;;;;;;20.27;13.63;;;29.70;99.90;;;;;;5056765;28;20176;-31
2023/10/02 13:29:07;;;;;;;21.75;13.23;;;29.90;99.90;;;;;;5075352;28;20205;-31
2023/10/02 13:31:34;;;;;;;25.70;15.10;;;29.90;99.90;;;;;;5059884;28;20178;-31
2023/10/02 13:34:05;;;;;;;23.73;14.57;;;30.00;99.90;;;;;;5058950;28;20200;-30
2023/10/02 13:36:37;;;;;;;21.27;13.40;;;30.10;99.90;;;;;;5060012;28;20184;-31
2023/10/02 13:39:16;;;;;;;22.80;13.15;;;30.30;99.90;;;;;;5069586;28;20209;-31
2023/10/02 13:41:42;;;;;;;20.88;13.98;;;30.40;99.90;;;;;;5047606;28;20184;-31
2023/10/02 13:44:09;;;;;;;21.88;13.80;;;30.50;99.90;;;;;;5060359;28;20281;-31
2023/10/02 13:46:38;;;;;;;23.25;13.88;;;30.40;99.90;;;;;;5074529;28;20185;-31
2023/10/02 13:49:06;;;;;;;23.88;14.77;;;30.40;99.90;;;;;;5063445;28;20204;-31
2023/10/02 13:51:32;;;;;;;24.90;14.75;;;30.50;99.90;;;;;;5076604;28;20191;-31
2023/10/02 13:53:58;;;;;;;23.40;14.82;;;30.50;99.90;;;;;;5068460;28;20240;-31
2023/10/02 13:56:32;;;;;;;23.88;13.93;;;30.60;99.90;;;;;;5070688;28;20187;-29
2023/10/02 13:58:59;;;;;;;23.25;14.05;;;30.70;99.90;;;;;;5062422;28;20194;-29